sensor_id;sensor_type;location;lat;lon;timestamp;P1;durP1;ratioP1;P2;durP2;ratioP2
18695;SDS011;22617;43.690;27.956;2022-07-29T00:04:12;3.90;;;3.30;;
18695;SDS011;22617;43.690;27.956;2022-07-29T00:09:17;3.75;;;3.30;;
18695;SDS011;22617;43.690;27.956;2022-07-29T00:14:21;5.57;;;4.03;;
18695;SDS011;22617;43.690;27.956;2022-07-29T00:19:27;3.90;;;3.40;;
18695;SDS011;22617;43.690;27.956;2022-07-29T00:24:34;3.78;;;3.22;;
18695;SDS011;22617;43.690;27.956;2022-07-29T00:29:38;4.72;;;3.20;;
18695;SDS011;22617;43.690;27.956;2022-07-29T00:34:44;3.40;;;3.10;;
18695;SDS011;22617;43.690;27.956;2022-07-29T00:40:14;4.95;;;3.30;;
18695;SDS011;22617;43.690;27.956;2022-07-29T00:45:18;3.67;;;3.10;;
18695;SDS011;22617;43.690;27.956;2022-07-29T00:50:25;3.35;;;3.05;;
18695;SDS011;22617;43.690;27.956;2022-07-29T00:55:30;3.60;;;3.03;;
18695;SDS011;22617;43.690;27.956;2022-07-29T01:00:34;4.13;;;3.20;;
18695;SDS011;22617;43.690;27.956;2022-07-29T01:05:41;5.00;;;3.55;;
18695;SDS011;22617;43.690;27.956;2022-07-29T01:10:52;3.65;;;2.95;;
18695;SDS011;22617;43.690;27.956;2022-07-29T01:15:58;3.63;;;3.28;;
18695;SDS011;22617;43.690;27.956;2022-07-29T01:21:21;4.18;;;2.95;;
18695;SDS011;22617;43.690;27.956;2022-07-29T01:26:42;3.95;;;3.40;;
18695;SDS011;22617;43.690;27.956;2022-07-29T01:31:54;3.65;;;2.95;;
18695;SDS011;22617;43.690;27.956;2022-07-29T01:37:05;4.20;;;3.30;;
18695;SDS011;22617;43.690;27.956;2022-07-29T01:42:16;3.72;;;3.28;;
18695;SDS011;22617;43.690;27.956;2022-07-29T01:47:30;3.92;;;3.10;;
18695;SDS011;22617;43.690;27.956;2022-07-29T01:52:39;3.13;;;2.83;;
18695;SDS011;22617;43.690;27.956;2022-07-29T01:57:48;5.07;;;3.40;;
18695;SDS011;22617;43.690;27.956;2022-07-29T02:02:54;3.42;;;3.13;;
18695;SDS011;22617;43.690;27.956;2022-07-29T02:08:02;4.93;;;3.15;;
18695;SDS011;22617;43.690;27.956;2022-07-29T02:13:09;3.42;;;3.05;;
18695;SDS011;22617;43.690;27.956;2022-07-29T02:18:18;5.13;;;3.20;;
18695;SDS011;22617;43.690;27.956;2022-07-29T02:23:26;4.15;;;3.20;;
18695;SDS011;22617;43.690;27.956;2022-07-29T02:28:30;3.33;;;3.00;;
18695;SDS011;22617;43.690;27.956;2022-07-29T02:33:38;4.18;;;3.20;;
18695;SDS011;22617;43.690;27.956;2022-07-29T02:38:45;3.42;;;3.00;;
18695;SDS011;22617;43.690;27.956;2022-07-29T02:43:56;3.17;;;2.75;;
18695;SDS011;22617;43.690;27.956;2022-07-29T02:49:04;3.80;;;2.80;;
18695;SDS011;22617;43.690;27.956;2022-07-29T02:54:17;3.92;;;2.80;;
18695;SDS011;22617;43.690;27.956;2022-07-29T02:59:27;3.42;;;3.03;;
18695;SDS011;22617;43.690;27.956;2022-07-29T03:05:00;3.17;;;2.88;;
18695;SDS011;22617;43.690;27.956;2022-07-29T03:10:06;3.40;;;3.10;;
18695;SDS011;22617;43.690;27.956;2022-07-29T03:15:14;3.83;;;2.97;;
18695;SDS011;22617;43.690;27.956;2022-07-29T03:20:20;3.45;;;2.90;;
18695;SDS011;22617;43.690;27.956;2022-07-29T03:25:25;4.28;;;2.95;;
18695;SDS011;22617;43.690;27.956;2022-07-29T03:30:29;3.03;;;2.72;;
18695;SDS011;22617;43.690;27.956;2022-07-29T03:35:35;4.15;;;3.10;;
18695;SDS011;22617;43.690;27.956;2022-07-29T03:40:40;5.00;;;3.22;;
18695;SDS011;22617;43.690;27.956;2022-07-29T03:45:50;4.47;;;3.00;;
18695;SDS011;22617;43.690;27.956;2022-07-29T03:50:59;3.58;;;3.17;;
18695;SDS011;22617;43.690;27.956;2022-07-29T03:56:03;5.22;;;3.20;;
18695;SDS011;22617;43.690;27.956;2022-07-29T04:01:09;3.85;;;3.08;;
18695;SDS011;22617;43.690;27.956;2022-07-29T04:06:16;3.78;;;3.00;;
18695;SDS011;22617;43.690;27.956;2022-07-29T04:11:20;3.60;;;2.80;;
18695;SDS011;22617;43.690;27.956;2022-07-29T04:16:25;6.32;;;3.17;;
18695;SDS011;22617;43.690;27.956;2022-07-29T04:21:31;4.93;;;4.10;;
18695;SDS011;22617;43.690;27.956;2022-07-29T04:26:41;5.03;;;4.05;;
18695;SDS011;22617;43.690;27.956;2022-07-29T04:31:47;7.93;;;5.45;;
18695;SDS011;22617;43.690;27.956;2022-07-29T04:36:52;7.25;;;6.00;;
18695;SDS011;22617;43.690;27.956;2022-07-29T04:41:56;6.03;;;4.93;;
18695;SDS011;22617;43.690;27.956;2022-07-29T04:47:00;5.82;;;4.40;;
18695;SDS011;22617;43.690;27.956;2022-07-29T04:52:06;5.15;;;3.92;;
18695;SDS011;22617;43.690;27.956;2022-07-29T04:57:11;4.72;;;3.70;;
18695;SDS011;22617;43.690;27.956;2022-07-29T05:02:15;4.43;;;3.55;;
18695;SDS011;22617;43.690;27.956;2022-07-29T05:07:20;8.13;;;3.67;;
18695;SDS011;22617;43.690;27.956;2022-07-29T05:12:25;4.13;;;3.33;;
18695;SDS011;22617;43.690;27.956;2022-07-29T05:17:29;4.35;;;3.13;;
18695;SDS011;22617;43.690;27.956;2022-07-29T05:22:35;4.53;;;2.95;;
18695;SDS011;22617;43.690;27.956;2022-07-29T05:27:40;3.70;;;2.65;;
18695;SDS011;22617;43.690;27.956;2022-07-29T05:32:44;3.45;;;3.10;;
18695;SDS011;22617;43.690;27.956;2022-07-29T05:37:50;3.97;;;2.70;;
18695;SDS011;22617;43.690;27.956;2022-07-29T05:42:55;3.45;;;3.00;;
18695;SDS011;22617;43.690;27.956;2022-07-29T05:47:59;4.22;;;2.97;;
18695;SDS011;22617;43.690;27.956;2022-07-29T05:53:06;5.03;;;3.10;;
18695;SDS011;22617;43.690;27.956;2022-07-29T05:58:21;7.70;;;4.88;;
18695;SDS011;22617;43.690;27.956;2022-07-29T06:03:26;5.20;;;3.00;;
18695;SDS011;22617;43.690;27.956;2022-07-29T06:08:32;4.25;;;3.10;;
18695;SDS011;22617;43.690;27.956;2022-07-29T06:13:37;5.18;;;3.00;;
18695;SDS011;22617;43.690;27.956;2022-07-29T06:18:42;5.63;;;2.83;;
18695;SDS011;22617;43.690;27.956;2022-07-29T06:23:48;2.92;;;2.60;;
18695;SDS011;22617;43.690;27.956;2022-07-29T06:28:52;3.10;;;2.65;;
18695;SDS011;22617;43.690;27.956;2022-07-29T06:33:57;2.72;;;2.20;;
18695;SDS011;22617;43.690;27.956;2022-07-29T06:39:05;3.90;;;2.42;;
18695;SDS011;22617;43.690;27.956;2022-07-29T06:44:12;4.00;;;2.80;;
18695;SDS011;22617;43.690;27.956;2022-07-29T06:49:18;4.10;;;2.50;;
18695;SDS011;22617;43.690;27.956;2022-07-29T06:54:24;4.22;;;3.15;;
18695;SDS011;22617;43.690;27.956;2022-07-29T06:59:28;4.75;;;2.53;;
18695;SDS011;22617;43.690;27.956;2022-07-29T07:04:37;3.95;;;2.70;;
18695;SDS011;22617;43.690;27.956;2022-07-29T07:09:43;3.88;;;2.50;;
18695;SDS011;22617;43.690;27.956;2022-07-29T07:14:48;5.00;;;2.47;;
18695;SDS011;22617;43.690;27.956;2022-07-29T07:19:53;4.72;;;2.92;;
18695;SDS011;22617;43.690;27.956;2022-07-29T07:24:59;3.83;;;2.60;;
18695;SDS011;22617;43.690;27.956;2022-07-29T07:30:05;6.10;;;2.80;;
18695;SDS011;22617;43.690;27.956;2022-07-29T07:35:11;2.70;;;2.50;;
18695;SDS011;22617;43.690;27.956;2022-07-29T07:40:18;3.15;;;2.47;;
18695;SDS011;22617;43.690;27.956;2022-07-29T07:45:23;4.60;;;2.63;;
18695;SDS011;22617;43.690;27.956;2022-07-29T07:50:29;5.70;;;2.72;;
18695;SDS011;22617;43.690;27.956;2022-07-29T07:55:38;3.40;;;2.63;;
18695;SDS011;22617;43.690;27.956;2022-07-29T08:01:04;4.00;;;2.90;;
18695;SDS011;22617;43.690;27.956;2022-07-29T08:06:09;4.13;;;2.50;;
18695;SDS011;22617;43.690;27.956;2022-07-29T08:11:15;4.50;;;2.83;;
18695;SDS011;22617;43.690;27.956;2022-07-29T08:16:19;5.10;;;3.42;;
18695;SDS011;22617;43.690;27.956;2022-07-29T08:21:23;2.97;;;2.53;;
18695;SDS011;22617;43.690;27.956;2022-07-29T08:26:30;3.25;;;2.95;;
18695;SDS011;22617;43.690;27.956;2022-07-29T08:31:35;4.10;;;2.67;;
18695;SDS011;22617;43.690;27.956;2022-07-29T08:36:39;3.30;;;2.90;;
18695;SDS011;22617;43.690;27.956;2022-07-29T08:41:45;3.53;;;2.92;;
18695;SDS011;22617;43.690;27.956;2022-07-29T08:46:58;3.33;;;3.03;;
18695;SDS011;22617;43.690;27.956;2022-07-29T08:52:03;5.25;;;3.50;;
18695;SDS011;22617;43.690;27.956;2022-07-29T08:57:10;3.78;;;2.80;;
18695;SDS011;22617;43.690;27.956;2022-07-29T09:02:19;6.53;;;3.00;;
18695;SDS011;22617;43.690;27.956;2022-07-29T09:07:26;5.45;;;3.25;;
18695;SDS011;22617;43.690;27.956;2022-07-29T09:12:37;4.55;;;3.00;;
18695;SDS011;22617;43.690;27.956;2022-07-29T09:17:42;4.43;;;3.13;;
18695;SDS011;22617;43.690;27.956;2022-07-29T09:22:48;6.20;;;4.07;;
18695;SDS011;22617;43.690;27.956;2022-07-29T09:28:04;5.18;;;3.50;;
18695;SDS011;22617;43.690;27.956;2022-07-29T09:33:10;5.15;;;3.15;;
18695;SDS011;22617;43.690;27.956;2022-07-29T09:38:14;7.88;;;3.72;;
18695;SDS011;22617;43.690;27.956;2022-07-29T09:43:21;4.30;;;3.25;;
18695;SDS011;22617;43.690;27.956;2022-07-29T09:48:26;5.93;;;3.83;;
18695;SDS011;22617;43.690;27.956;2022-07-29T09:53:31;7.47;;;3.70;;
18695;SDS011;22617;43.690;27.956;2022-07-29T09:58:38;5.20;;;3.10;;
18695;SDS011;22617;43.690;27.956;2022-07-29T10:03:52;3.90;;;3.47;;
18695;SDS011;22617;43.690;27.956;2022-07-29T10:09:06;5.93;;;3.45;;
18695;SDS011;22617;43.690;27.956;2022-07-29T10:14:12;4.25;;;3.65;;
18695;SDS011;22617;43.690;27.956;2022-07-29T10:19:18;4.82;;;3.20;;
18695;SDS011;22617;43.690;27.956;2022-07-29T10:24:24;5.85;;;3.80;;
18695;SDS011;22617;43.690;27.956;2022-07-29T10:29:31;4.97;;;3.67;;
18695;SDS011;22617;43.690;27.956;2022-07-29T10:34:41;5.15;;;3.65;;
18695;SDS011;22617;43.690;27.956;2022-07-29T10:40:03;5.32;;;3.63;;
18695;SDS011;22617;43.690;27.956;2022-07-29T10:45:30;5.00;;;3.65;;
18695;SDS011;22617;43.690;27.956;2022-07-29T10:56:02;11.15;;;4.20;;
18695;SDS011;22617;43.690;27.956;2022-07-29T11:01:27;9.35;;;3.92;;
18695;SDS011;22617;43.690;27.956;2022-07-29T11:18:07;10.75;;;4.00;;
18695;SDS011;22617;43.690;27.956;2022-07-29T11:23:22;7.30;;;4.15;;
18695;SDS011;22617;43.690;27.956;2022-07-29T11:28:35;4.35;;;3.47;;
18695;SDS011;22617;43.690;27.956;2022-07-29T11:33:44;5.57;;;3.42;;
18695;SDS011;22617;43.690;27.956;2022-07-29T11:50:00;3.78;;;3.17;;
18695;SDS011;22617;43.690;27.956;2022-07-29T11:55:11;4.47;;;3.35;;
18695;SDS011;22617;43.690;27.956;2022-07-29T12:00:22;5.40;;;3.40;;
18695;SDS011;22617;43.690;27.956;2022-07-29T12:05:37;6.88;;;3.67;;
18695;SDS011;22617;43.690;27.956;2022-07-29T12:10:52;4.53;;;3.20;;
18695;SDS011;22617;43.690;27.956;2022-07-29T12:15:57;5.10;;;3.20;;
18695;SDS011;22617;43.690;27.956;2022-07-29T12:21:04;5.15;;;3.30;;
18695;SDS011;22617;43.690;27.956;2022-07-29T12:26:15;5.10;;;2.90;;
18695;SDS011;22617;43.690;27.956;2022-07-29T12:31:26;3.83;;;3.00;;
18695;SDS011;22617;43.690;27.956;2022-07-29T12:36:48;4.80;;;3.03;;
18695;SDS011;22617;43.690;27.956;2022-07-29T12:41:53;5.63;;;3.30;;
18695;SDS011;22617;43.690;27.956;2022-07-29T12:47:06;3.60;;;3.10;;
18695;SDS011;22617;43.690;27.956;2022-07-29T12:52:28;5.05;;;3.40;;
18695;SDS011;22617;43.690;27.956;2022-07-29T12:57:44;4.35;;;2.88;;
18695;SDS011;22617;43.690;27.956;2022-07-29T13:02:54;4.88;;;2.97;;
18695;SDS011;22617;43.690;27.956;2022-07-29T13:08:10;6.30;;;3.25;;
18695;SDS011;22617;43.690;27.956;2022-07-29T13:13:23;4.45;;;3.35;;
18695;SDS011;22617;43.690;27.956;2022-07-29T13:18:28;4.68;;;3.30;;
18695;SDS011;22617;43.690;27.956;2022-07-29T13:23:35;4.78;;;3.10;;
18695;SDS011;22617;43.690;27.956;2022-07-29T13:28:39;4.20;;;3.33;;
18695;SDS011;22617;43.690;27.956;2022-07-29T13:33:45;7.10;;;3.30;;
18695;SDS011;22617;43.690;27.956;2022-07-29T13:38:52;5.70;;;3.00;;
18695;SDS011;22617;43.690;27.956;2022-07-29T13:43:56;8.85;;;3.35;;
18695;SDS011;22617;43.690;27.956;2022-07-29T13:49:00;5.10;;;3.33;;
18695;SDS011;22617;43.690;27.956;2022-07-29T13:54:06;6.40;;;3.08;;
18695;SDS011;22617;43.690;27.956;2022-07-29T13:59:10;4.28;;;3.40;;
18695;SDS011;22617;43.690;27.956;2022-07-29T14:04:15;7.93;;;2.97;;
18695;SDS011;22617;43.690;27.956;2022-07-29T14:09:22;5.93;;;3.25;;
18695;SDS011;22617;43.690;27.956;2022-07-29T14:14:26;3.83;;;3.20;;
18695;SDS011;22617;43.690;27.956;2022-07-29T14:19:31;4.10;;;2.90;;
18695;SDS011;22617;43.690;27.956;2022-07-29T14:24:39;3.47;;;2.97;;
18695;SDS011;22617;43.690;27.956;2022-07-29T14:29:43;5.32;;;3.42;;
18695;SDS011;22617;43.690;27.956;2022-07-29T14:34:48;3.60;;;3.20;;
18695;SDS011;22617;43.690;27.956;2022-07-29T14:39:54;5.72;;;3.70;;
18695;SDS011;22617;43.690;27.956;2022-07-29T14:45:02;4.32;;;2.80;;
18695;SDS011;22617;43.690;27.956;2022-07-29T14:50:10;5.25;;;3.40;;
18695;SDS011;22617;43.690;27.956;2022-07-29T14:55:18;3.22;;;2.92;;
18695;SDS011;22617;43.690;27.956;2022-07-29T15:00:24;6.32;;;2.72;;
18695;SDS011;22617;43.690;27.956;2022-07-29T15:05:29;9.98;;;3.10;;
18695;SDS011;22617;43.690;27.956;2022-07-29T15:10:37;6.80;;;3.00;;
18695;SDS011;22617;43.690;27.956;2022-07-29T15:15:41;4.45;;;3.05;;
18695;SDS011;22617;43.690;27.956;2022-07-29T15:20:46;3.35;;;2.90;;
18695;SDS011;22617;43.690;27.956;2022-07-29T15:25:52;4.28;;;2.97;;
18695;SDS011;22617;43.690;27.956;2022-07-29T15:30:56;5.57;;;3.00;;
18695;SDS011;22617;43.690;27.956;2022-07-29T15:36:01;3.75;;;3.08;;
18695;SDS011;22617;43.690;27.956;2022-07-29T15:41:08;5.60;;;3.15;;
18695;SDS011;22617;43.690;27.956;2022-07-29T15:46:12;5.88;;;2.97;;
18695;SDS011;22617;43.690;27.956;2022-07-29T15:51:33;3.42;;;3.05;;
18695;SDS011;22617;43.690;27.956;2022-07-29T15:56:39;4.93;;;3.38;;
18695;SDS011;22617;43.690;27.956;2022-07-29T16:01:44;7.53;;;3.53;;
18695;SDS011;22617;43.690;27.956;2022-07-29T16:06:48;6.78;;;3.10;;
18695;SDS011;22617;43.690;27.956;2022-07-29T16:11:54;5.03;;;3.10;;
18695;SDS011;22617;43.690;27.956;2022-07-29T16:16:58;4.63;;;3.40;;
18695;SDS011;22617;43.690;27.956;2022-07-29T16:22:04;5.03;;;3.47;;
18695;SDS011;22617;43.690;27.956;2022-07-29T16:27:10;4.90;;;3.45;;
18695;SDS011;22617;43.690;27.956;2022-07-29T16:32:14;3.70;;;3.30;;
18695;SDS011;22617;43.690;27.956;2022-07-29T16:37:23;6.60;;;3.83;;
18695;SDS011;22617;43.690;27.956;2022-07-29T16:42:35;4.00;;;3.67;;
18695;SDS011;22617;43.690;27.956;2022-07-29T16:47:48;5.22;;;3.60;;
18695;SDS011;22617;43.690;27.956;2022-07-29T16:52:53;5.90;;;3.85;;
18695;SDS011;22617;43.690;27.956;2022-07-29T16:58:00;6.80;;;4.22;;
18695;SDS011;22617;43.690;27.956;2022-07-29T17:03:05;8.43;;;3.92;;
18695;SDS011;22617;43.690;27.956;2022-07-29T17:08:11;4.82;;;3.90;;
18695;SDS011;22617;43.690;27.956;2022-07-29T17:13:18;6.63;;;4.38;;
18695;SDS011;22617;43.690;27.956;2022-07-29T17:18:23;5.80;;;3.85;;
18695;SDS011;22617;43.690;27.956;2022-07-29T17:23:27;8.25;;;4.20;;
18695;SDS011;22617;43.690;27.956;2022-07-29T17:28:33;3.80;;;3.40;;
18695;SDS011;22617;43.690;27.956;2022-07-29T17:33:37;5.32;;;3.83;;
18695;SDS011;22617;43.690;27.956;2022-07-29T17:38:41;6.55;;;3.83;;
18695;SDS011;22617;43.690;27.956;2022-07-29T17:43:47;4.05;;;3.63;;
18695;SDS011;22617;43.690;27.956;2022-07-29T17:48:51;8.32;;;3.55;;
18695;SDS011;22617;43.690;27.956;2022-07-29T17:53:57;4.82;;;3.70;;
18695;SDS011;22617;43.690;27.956;2022-07-29T17:59:03;4.95;;;4.05;;
18695;SDS011;22617;43.690;27.956;2022-07-29T18:04:11;5.22;;;4.07;;
18695;SDS011;22617;43.690;27.956;2022-07-29T18:09:16;6.03;;;4.40;;
18695;SDS011;22617;43.690;27.956;2022-07-29T18:14:22;8.18;;;4.47;;
18695;SDS011;22617;43.690;27.956;2022-07-29T18:19:26;8.20;;;4.85;;
18695;SDS011;22617;43.690;27.956;2022-07-29T18:24:30;8.02;;;5.45;;
18695;SDS011;22617;43.690;27.956;2022-07-29T18:29:38;9.07;;;5.30;;
18695;SDS011;22617;43.690;27.956;2022-07-29T18:34:42;10.60;;;7.00;;
18695;SDS011;22617;43.690;27.956;2022-07-29T18:39:49;8.65;;;6.20;;
18695;SDS011;22617;43.690;27.956;2022-07-29T18:44:57;11.45;;;6.53;;
18695;SDS011;22617;43.690;27.956;2022-07-29T18:50:05;9.27;;;6.65;;
18695;SDS011;22617;43.690;27.956;2022-07-29T18:55:10;9.02;;;7.60;;
18695;SDS011;22617;43.690;27.956;2022-07-29T19:00:17;18.17;;;9.20;;
18695;SDS011;22617;43.690;27.956;2022-07-29T19:05:22;14.70;;;8.20;;
18695;SDS011;22617;43.690;27.956;2022-07-29T19:10:27;14.85;;;8.95;;
18695;SDS011;22617;43.690;27.956;2022-07-29T19:15:33;14.10;;;9.70;;
18695;SDS011;22617;43.690;27.956;2022-07-29T19:20:38;13.55;;;9.80;;
18695;SDS011;22617;43.690;27.956;2022-07-29T19:25:44;17.63;;;10.30;;
18695;SDS011;22617;43.690;27.956;2022-07-29T19:30:56;16.33;;;10.52;;
18695;SDS011;22617;43.690;27.956;2022-07-29T19:36:01;14.25;;;10.88;;
18695;SDS011;22617;43.690;27.956;2022-07-29T19:41:06;14.00;;;10.05;;
18695;SDS011;22617;43.690;27.956;2022-07-29T19:46:12;23.50;;;12.57;;
18695;SDS011;22617;43.690;27.956;2022-07-29T19:51:17;11.80;;;10.18;;
18695;SDS011;22617;43.690;27.956;2022-07-29T19:56:21;19.05;;;12.38;;
18695;SDS011;22617;43.690;27.956;2022-07-29T20:01:30;14.60;;;10.93;;
18695;SDS011;22617;43.690;27.956;2022-07-29T20:06:35;16.60;;;12.48;;
18695;SDS011;22617;43.690;27.956;2022-07-29T20:11:39;22.75;;;13.32;;
18695;SDS011;22617;43.690;27.956;2022-07-29T20:16:45;22.33;;;15.23;;
18695;SDS011;22617;43.690;27.956;2022-07-29T20:21:50;22.52;;;14.98;;
18695;SDS011;22617;43.690;27.956;2022-07-29T20:26:57;23.20;;;16.15;;
18695;SDS011;22617;43.690;27.956;2022-07-29T20:32:04;24.45;;;16.88;;
18695;SDS011;22617;43.690;27.956;2022-07-29T20:37:08;27.40;;;18.38;;
18695;SDS011;22617;43.690;27.956;2022-07-29T20:42:15;26.50;;;18.90;;
18695;SDS011;22617;43.690;27.956;2022-07-29T20:47:21;28.65;;;19.02;;
18695;SDS011;22617;43.690;27.956;2022-07-29T20:52:26;32.85;;;19.52;;
18695;SDS011;22617;43.690;27.956;2022-07-29T20:57:31;30.63;;;18.33;;
18695;SDS011;22617;43.690;27.956;2022-07-29T21:02:42;26.92;;;17.45;;
18695;SDS011;22617;43.690;27.956;2022-07-29T21:07:48;26.40;;;17.80;;
18695;SDS011;22617;43.690;27.956;2022-07-29T21:12:59;24.40;;;17.52;;
18695;SDS011;22617;43.690;27.956;2022-07-29T21:18:06;28.35;;;17.90;;
18695;SDS011;22617;43.690;27.956;2022-07-29T21:23:27;22.45;;;16.52;;
18695;SDS011;22617;43.690;27.956;2022-07-29T21:28:33;23.98;;;15.70;;
18695;SDS011;22617;43.690;27.956;2022-07-29T21:33:43;27.95;;;18.23;;
18695;SDS011;22617;43.690;27.956;2022-07-29T21:38:49;24.27;;;16.60;;
18695;SDS011;22617;43.690;27.956;2022-07-29T21:43:54;24.27;;;17.85;;
18695;SDS011;22617;43.690;27.956;2022-07-29T21:49:01;24.83;;;17.73;;
18695;SDS011;22617;43.690;27.956;2022-07-29T21:54:06;26.45;;;18.42;;
18695;SDS011;22617;43.690;27.956;2022-07-29T21:59:11;32.35;;;18.58;;
18695;SDS011;22617;43.690;27.956;2022-07-29T22:04:17;33.08;;;18.90;;
18695;SDS011;22617;43.690;27.956;2022-07-29T22:09:21;27.33;;;18.42;;
18695;SDS011;22617;43.690;27.956;2022-07-29T22:14:25;23.08;;;17.95;;
18695;SDS011;22617;43.690;27.956;2022-07-29T22:19:30;26.73;;;19.65;;
18695;SDS011;22617;43.690;27.956;2022-07-29T22:24:35;26.25;;;19.13;;
18695;SDS011;22617;43.690;27.956;2022-07-29T22:29:40;25.20;;;18.23;;
18695;SDS011;22617;43.690;27.956;2022-07-29T22:34:46;25.85;;;17.90;;
18695;SDS011;22617;43.690;27.956;2022-07-29T22:39:50;20.63;;;16.05;;
18695;SDS011;22617;43.690;27.956;2022-07-29T22:44:54;23.05;;;17.58;;
18695;SDS011;22617;43.690;27.956;2022-07-29T22:50:00;24.27;;;17.13;;
18695;SDS011;22617;43.690;27.956;2022-07-29T22:55:04;22.33;;;17.02;;
18695;SDS011;22617;43.690;27.956;2022-07-29T23:00:11;23.42;;;16.50;;
18695;SDS011;22617;43.690;27.956;2022-07-29T23:05:17;22.27;;;15.93;;
18695;SDS011;22617;43.690;27.956;2022-07-29T23:10:21;24.50;;;16.30;;
18695;SDS011;22617;43.690;27.956;2022-07-29T23:15:25;26.67;;;16.20;;
18695;SDS011;22617;43.690;27.956;2022-07-29T23:20:31;26.15;;;17.50;;
18695;SDS011;22617;43.690;27.956;2022-07-29T23:25:35;26.08;;;16.85;;
18695;SDS011;22617;43.690;27.956;2022-07-29T23:30:39;25.45;;;16.83;;
18695;SDS011;22617;43.690;27.956;2022-07-29T23:35:45;22.88;;;16.13;;
18695;SDS011;22617;43.690;27.956;2022-07-29T23:40:49;22.58;;;14.43;;
18695;SDS011;22617;43.690;27.956;2022-07-29T23:45:53;21.13;;;14.43;;
18695;SDS011;22617;43.690;27.956;2022-07-29T23:51:00;27.58;;;15.23;;
18695;SDS011;22617;43.690;27.956;2022-07-29T23:56:04;30.58;;;15.20;;
